createdAt,value
2022-11-21T00:00:04.958Z,846.23
2022-11-21T00:01:04.970Z,846.28
2022-11-21T00:02:05.029Z,846.31
2022-11-21T00:03:04.931Z,846.32
2022-11-21T00:04:04.925Z,846.26
2022-11-21T00:05:04.912Z,846.22
2022-11-21T00:06:04.903Z,846.16
2022-11-21T00:07:04.965Z,846.17
2022-11-21T00:08:04.964Z,846.14
2022-11-21T00:09:04.867Z,846.15
2022-11-21T00:10:04.943Z,846.19
2022-11-21T00:11:04.845Z,846.18
2022-11-21T00:12:04.834Z,846.26
2022-11-21T00:13:04.824Z,846.24
2022-11-21T00:14:04.889Z,846.28
2022-11-21T00:15:04.805Z,846.18
2022-11-21T00:16:04.806Z,846.14
2022-11-21T00:17:04.783Z,846.08
2022-11-21T00:18:04.777Z,846.08
2022-11-21T00:19:04.759Z,846.08
2022-11-21T00:20:04.783Z,846.15
2022-11-21T00:21:04.755Z,846.09
2022-11-21T00:22:04.729Z,846.08
2022-11-21T00:23:04.719Z,846.03
2022-11-21T00:24:04.706Z,846.01
2022-11-21T00:25:04.708Z,846.04
2022-11-21T00:26:04.748Z,846.03
2022-11-21T00:27:04.682Z,845.98
2022-11-21T00:28:04.671Z,845.97
2022-11-21T00:29:04.659Z,846.01
2022-11-21T00:30:04.644Z,846.00
2022-11-21T00:31:04.653Z,846.11
2022-11-21T00:32:04.631Z,846.13
2022-11-21T00:33:04.620Z,846.10
2022-11-21T00:34:04.606Z,846.17
2022-11-21T00:35:04.658Z,846.21
2022-11-21T00:36:04.584Z,846.20
2022-11-21T00:37:04.585Z,846.21
2022-11-21T00:38:04.626Z,846.25
2022-11-21T00:39:04.555Z,846.19
2022-11-21T00:40:04.544Z,846.13
2022-11-21T00:41:04.537Z,846.15
2022-11-21T00:42:04.518Z,846.14
2022-11-21T00:43:04.584Z,846.14
2022-11-21T00:44:04.510Z,846.16
2022-11-21T00:45:04.485Z,846.14
2022-11-21T00:46:04.519Z,846.23
2022-11-21T00:47:04.468Z,846.21
2022-11-21T00:48:04.556Z,846.17
2022-11-21T00:49:04.493Z,846.10
2022-11-21T00:50:04.435Z,846.18
2022-11-21T00:51:04.426Z,846.14
2022-11-21T00:52:04.411Z,846.17
2022-11-21T00:53:04.406Z,846.06
2022-11-21T00:54:04.403Z,846.13
2022-11-21T00:55:04.396Z,846.06
2022-11-21T00:56:04.380Z,846.01
2022-11-21T00:57:04.367Z,845.97
2022-11-21T00:58:04.349Z,845.98
2022-11-21T00:59:04.338Z,845.99
2022-11-21T01:00:04.350Z,845.91
2022-11-21T01:01:04.386Z,845.88
2022-11-21T01:02:04.379Z,846.03
2022-11-21T01:03:04.296Z,846.12
2022-11-21T01:04:04.290Z,846.14
2022-11-21T01:05:04.282Z,846.18
2022-11-21T01:06:04.281Z,846.18
2022-11-21T01:07:04.321Z,846.21
2022-11-21T01:08:04.303Z,846.27
2022-11-21T01:09:04.237Z,846.22
2022-11-21T01:10:04.241Z,846.23
2022-11-21T01:11:04.229Z,846.17
2022-11-21T01:12:04.209Z,846.16
2022-11-21T01:13:04.222Z,846.09
2022-11-21T01:14:04.209Z,846.12
2022-11-21T01:15:04.289Z,846.13
2022-11-21T01:16:04.161Z,846.14
2022-11-21T01:17:04.154Z,846.12
2022-11-21T01:18:04.140Z,846.13
2022-11-21T01:19:04.131Z,846.13
2022-11-21T01:20:04.193Z,846.06
2022-11-21T01:21:04.125Z,846.08
2022-11-21T01:22:04.100Z,846.14
2022-11-21T01:23:04.092Z,846.11
2022-11-21T01:24:04.080Z,846.20
2022-11-21T01:25:04.082Z,846.18
2022-11-21T01:26:04.131Z,846.15
2022-11-21T01:27:04.051Z,846.13
2022-11-21T01:28:04.049Z,846.13
2022-11-21T01:29:04.051Z,846.17
2022-11-21T01:30:04.016Z,846.12
2022-11-21T01:31:04.009Z,846.15
2022-11-21T01:32:04.052Z,846.15
2022-11-21T01:33:03.983Z,846.10
2022-11-21T01:34:03.982Z,846.17
2022-11-21T01:35:03.967Z,846.14
2022-11-21T01:36:03.956Z,846.17
2022-11-21T01:37:03.942Z,846.16
2022-11-21T01:38:03.990Z,846.17
2022-11-21T01:39:03.928Z,846.19
2022-11-21T01:40:03.916Z,846.22
2022-11-21T01:41:03.915Z,846.19
2022-11-21T01:42:03.895Z,846.20
2022-11-21T01:43:03.879Z,846.15
2022-11-21T01:44:03.910Z,846.10
2022-11-21T01:45:03.883Z,846.11
2022-11-21T01:46:03.852Z,846.09
2022-11-21T01:47:03.844Z,846.15
2022-11-21T01:48:03.829Z,846.14
2022-11-21T01:49:03.821Z,846.18
2022-11-21T01:50:03.886Z,846.14
2022-11-21T01:51:03.800Z,846.12
2022-11-21T01:52:03.789Z,846.12
2022-11-21T01:53:03.777Z,846.08
2022-11-21T01:54:03.763Z,846.09
2022-11-21T01:55:03.767Z,846.07
2022-11-21T01:56:03.760Z,846.12
2022-11-21T01:57:03.746Z,846.08
2022-11-21T01:58:03.728Z,846.07
2022-11-21T01:59:03.713Z,845.97
2022-11-21T02:00:03.718Z,846.02
2022-11-21T02:01:03.783Z,846.09
2022-11-21T02:02:03.742Z,846.08
2022-11-21T02:03:03.672Z,846.08
2022-11-21T02:04:03.672Z,846.07
2022-11-21T02:05:03.651Z,846.11
2022-11-21T02:06:03.640Z,846.10
2022-11-21T02:07:03.671Z,846.04
2022-11-21T02:08:03.712Z,845.99
2022-11-21T02:09:03.620Z,846.01
2022-11-21T02:10:03.600Z,846.03
2022-11-21T02:11:03.586Z,846.02
2022-11-21T02:12:03.646Z,845.95
2022-11-21T02:13:03.565Z,846.05
2022-11-21T02:14:03.570Z,845.96
2022-11-21T02:15:03.628Z,845.98
2022-11-21T02:16:03.537Z,846.02
2022-11-21T02:17:03.555Z,846.03
2022-11-21T02:18:03.630Z,846.04
2022-11-21T02:19:03.501Z,846.02
2022-11-21T02:20:03.567Z,845.96
2022-11-21T02:21:03.483Z,845.95
2022-11-21T02:22:03.472Z,845.98
2022-11-21T02:23:03.461Z,845.91
2022-11-21T02:24:03.460Z,845.96
2022-11-21T02:25:03.439Z,845.96
2022-11-21T02:26:03.515Z,845.89
2022-11-21T02:27:03.425Z,845.87
2022-11-21T02:28:03.414Z,845.86
2022-11-21T02:29:03.398Z,845.85
2022-11-21T02:30:03.390Z,845.85
2022-11-21T02:31:03.390Z,845.81
2022-11-21T02:32:03.433Z,845.78
2022-11-21T02:33:03.386Z,845.79
2022-11-21T02:34:03.343Z,845.76
2022-11-21T02:35:03.432Z,845.75
2022-11-21T02:36:03.324Z,845.76
2022-11-21T02:37:03.311Z,845.75
2022-11-21T02:38:03.366Z,845.69
2022-11-21T02:39:03.296Z,845.67
2022-11-21T02:40:03.288Z,845.66
2022-11-21T02:41:03.294Z,845.68
2022-11-21T02:42:03.266Z,845.59
2022-11-21T02:43:03.254Z,845.57
2022-11-21T02:44:03.298Z,845.59
2022-11-21T02:45:03.234Z,845.56
2022-11-21T02:46:03.234Z,845.59
2022-11-21T02:47:03.206Z,845.60
2022-11-21T02:48:04.509Z,845.67
2022-11-21T02:49:03.217Z,845.62
2022-11-21T02:50:03.201Z,845.64
2022-11-21T02:51:03.180Z,845.67
2022-11-21T02:52:03.157Z,845.66
2022-11-21T02:53:03.155Z,845.59
2022-11-21T02:54:03.136Z,845.59
2022-11-21T02:55:03.130Z,845.59
2022-11-21T02:56:03.208Z,845.55
2022-11-21T02:57:03.127Z,845.47
2022-11-21T02:58:05.206Z,845.44
2022-11-21T02:59:03.085Z,845.48
2022-11-21T03:00:03.076Z,845.49
2022-11-21T03:01:03.161Z,845.54
2022-11-21T03:02:03.132Z,845.53
2022-11-21T03:03:03.054Z,845.59
2022-11-21T03:04:03.029Z,845.56
2022-11-21T03:05:03.044Z,845.57
2022-11-21T03:06:03.006Z,845.66
2022-11-21T03:07:03.087Z,845.57
2022-11-21T03:08:03.047Z,845.61
2022-11-21T03:09:02.981Z,845.55
2022-11-21T03:10:02.967Z,845.59
2022-11-21T03:11:02.956Z,845.63
2022-11-21T03:12:02.952Z,845.62
2022-11-21T03:13:02.945Z,845.53
2022-11-21T03:14:02.979Z,845.48
2022-11-21T03:15:02.915Z,845.42
2022-11-21T03:16:02.914Z,845.45
2022-11-21T03:17:02.889Z,845.48
2022-11-21T03:18:03.065Z,845.46
2022-11-21T03:19:02.881Z,845.52
2022-11-21T03:20:02.930Z,845.51
2022-11-21T03:21:02.872Z,845.49
2022-11-21T03:22:02.845Z,845.54
2022-11-21T03:23:02.837Z,845.58
2022-11-21T03:24:02.820Z,845.56
2022-11-21T03:25:02.808Z,845.57
2022-11-21T03:26:02.898Z,845.50
2022-11-21T03:27:02.787Z,845.46
2022-11-21T03:28:02.870Z,845.45
2022-11-21T03:29:02.767Z,845.45
2022-11-21T03:30:02.754Z,845.36
2022-11-21T03:31:02.772Z,845.37
2022-11-21T03:32:02.829Z,845.35
2022-11-21T03:33:02.727Z,845.34
2022-11-21T03:34:02.734Z,845.30
2022-11-21T03:35:02.716Z,845.23
2022-11-21T03:36:02.691Z,845.18
2022-11-21T03:37:02.712Z,845.13
2022-11-21T03:38:02.758Z,845.12
2022-11-21T03:39:02.657Z,845.11
2022-11-21T03:40:02.664Z,845.15
2022-11-21T03:41:02.641Z,845.16
2022-11-21T03:42:02.625Z,845.11
2022-11-21T03:43:02.619Z,845.07
2022-11-21T03:44:02.691Z,845.07
2022-11-21T03:45:02.601Z,845.06
2022-11-21T03:46:02.603Z,845.08
2022-11-21T03:47:02.576Z,845.11
2022-11-21T03:48:02.568Z,845.10
2022-11-21T03:49:02.560Z,845.14
2022-11-21T03:50:02.552Z,845.05
2022-11-21T03:51:02.535Z,845.06
2022-11-21T03:52:02.526Z,845.05
2022-11-21T03:53:02.538Z,845.04
2022-11-21T03:54:02.589Z,844.98
2022-11-21T03:55:02.496Z,844.90
2022-11-21T03:56:02.481Z,844.89
2022-11-21T03:57:02.535Z,844.94
2022-11-21T03:58:02.462Z,844.95
2022-11-21T03:59:02.464Z,844.98
2022-11-21T04:00:02.442Z,844.93
2022-11-21T04:01:02.450Z,844.94
2022-11-21T04:02:02.528Z,844.99
2022-11-21T04:03:02.408Z,845.05
2022-11-21T04:04:02.400Z,845.02
2022-11-21T04:05:02.402Z,845.02
2022-11-21T04:06:02.382Z,845.05
2022-11-21T04:07:02.446Z,845.07
2022-11-21T04:08:02.411Z,845.03
2022-11-21T04:09:02.372Z,845.01
2022-11-21T04:10:02.343Z,844.97
2022-11-21T04:11:02.323Z,844.93
2022-11-21T04:12:07.314Z,844.87
2022-11-21T04:13:03.302Z,844.82
2022-11-21T04:14:02.368Z,844.81
2022-11-21T04:15:02.371Z,844.67
2022-11-21T04:16:02.283Z,844.66
2022-11-21T04:17:02.262Z,844.57
2022-11-21T04:18:02.260Z,844.51
2022-11-21T04:19:02.257Z,844.52
2022-11-21T04:20:02.311Z,844.53
2022-11-21T04:21:02.230Z,844.49
2022-11-21T04:22:02.209Z,844.54
2022-11-21T04:23:02.201Z,844.52
2022-11-21T04:24:02.189Z,844.53
2022-11-21T04:25:02.226Z,844.51
2022-11-21T04:26:02.236Z,844.49
2022-11-21T04:27:02.166Z,844.49
2022-11-21T04:28:02.157Z,844.45
2022-11-21T04:29:02.136Z,844.46
2022-11-21T04:30:02.125Z,844.45
2022-11-21T04:31:03.718Z,844.45
2022-11-21T04:32:02.177Z,844.47
2022-11-21T04:33:02.099Z,844.45
2022-11-21T04:34:02.100Z,844.47
2022-11-21T04:35:02.074Z,844.47
2022-11-21T04:36:02.065Z,844.50
2022-11-21T04:37:02.273Z,844.47
2022-11-21T04:38:02.096Z,844.46
2022-11-21T04:39:02.033Z,844.44
2022-11-21T04:40:02.029Z,844.45
2022-11-21T04:41:02.034Z,844.47
2022-11-21T04:42:01.999Z,844.44
2022-11-21T04:43:01.990Z,844.40
2022-11-21T04:44:02.078Z,844.37
2022-11-21T04:45:01.969Z,844.40
2022-11-21T04:46:01.959Z,844.42
2022-11-21T04:47:05.356Z,844.44
2022-11-21T04:48:01.936Z,844.44
2022-11-21T04:49:01.926Z,844.47
2022-11-21T04:50:02.022Z,844.51
2022-11-21T04:51:01.907Z,844.51
2022-11-21T04:52:01.896Z,844.54
2022-11-21T04:53:01.891Z,844.57
2022-11-21T04:54:01.935Z,844.57
2022-11-21T04:55:02.073Z,844.60
2022-11-21T04:56:01.927Z,844.66
2022-11-21T04:57:01.879Z,844.66
2022-11-21T04:58:01.830Z,844.69
2022-11-21T04:59:01.836Z,844.68
2022-11-21T05:00:01.814Z,844.68
2022-11-21T05:01:01.836Z,844.68
2022-11-21T05:02:01.877Z,844.70
2022-11-21T05:03:01.780Z,844.68
2022-11-21T05:04:01.768Z,844.71
2022-11-21T05:05:01.771Z,844.68
2022-11-21T05:06:01.747Z,844.71
2022-11-21T05:07:01.860Z,844.68
2022-11-21T05:08:01.753Z,844.70
2022-11-21T05:09:01.718Z,844.73
2022-11-21T05:10:01.704Z,844.71
2022-11-21T05:11:01.694Z,844.68
2022-11-21T05:12:01.682Z,844.70
2022-11-21T05:13:01.695Z,844.74
2022-11-21T05:14:01.810Z,844.73
2022-11-21T05:15:01.648Z,844.75
2022-11-21T05:16:01.638Z,844.73
2022-11-21T05:17:01.630Z,844.75
2022-11-21T05:18:01.618Z,844.79
2022-11-21T05:19:01.605Z,844.74
2022-11-21T05:20:01.627Z,844.78
2022-11-21T05:21:01.585Z,844.77
2022-11-21T05:22:01.572Z,844.75
2022-11-21T05:23:01.561Z,844.78
2022-11-21T05:24:01.558Z,844.79
2022-11-21T05:25:01.612Z,844.79
2022-11-21T05:26:01.544Z,844.83
2022-11-21T05:27:01.519Z,844.79
2022-11-21T05:28:01.545Z,844.76
2022-11-21T05:29:01.529Z,844.68
2022-11-21T05:30:01.500Z,844.73
2022-11-21T05:31:01.533Z,844.75
2022-11-21T05:32:01.468Z,844.73
2022-11-21T05:33:01.462Z,844.70
2022-11-21T05:34:01.469Z,844.66
2022-11-21T05:35:01.438Z,844.62
2022-11-21T05:36:01.427Z,844.63
2022-11-21T05:37:01.521Z,844.70
2022-11-21T05:38:01.402Z,844.74
2022-11-21T05:39:01.391Z,844.77
2022-11-21T05:40:01.422Z,844.80
2022-11-21T05:41:01.366Z,844.75
2022-11-21T05:42:03.177Z,844.73
2022-11-21T05:43:01.443Z,844.71
2022-11-21T05:44:01.351Z,844.75
2022-11-21T05:45:01.347Z,844.68
2022-11-21T05:46:01.315Z,844.68
2022-11-21T05:47:01.308Z,844.71
2022-11-21T05:48:01.299Z,844.69
2022-11-21T05:49:01.475Z,844.64
2022-11-21T05:50:01.272Z,844.65
2022-11-21T05:51:01.268Z,844.64
2022-11-21T05:52:01.259Z,844.66
2022-11-21T05:53:01.242Z,844.69
2022-11-21T05:54:01.235Z,844.70
2022-11-21T05:55:01.298Z,844.63
2022-11-21T05:56:01.229Z,844.71
2022-11-21T05:57:01.204Z,844.70
2022-11-21T05:58:01.193Z,844.71
2022-11-21T05:59:01.180Z,844.69
2022-11-21T06:00:01.174Z,844.70
2022-11-21T06:01:01.213Z,844.62
2022-11-21T06:02:01.170Z,844.61
2022-11-21T06:03:01.244Z,844.65
2022-11-21T06:04:01.140Z,844.69
2022-11-21T06:05:01.116Z,844.74
2022-11-21T06:06:01.116Z,844.72
2022-11-21T06:07:01.176Z,844.75
2022-11-21T06:08:01.294Z,844.74
2022-11-21T06:09:01.075Z,844.73
2022-11-21T06:10:01.076Z,844.73
2022-11-21T06:11:01.052Z,844.72
2022-11-21T06:12:01.039Z,844.75
2022-11-21T06:13:01.083Z,844.79
2022-11-21T06:14:01.019Z,844.78
2022-11-21T06:15:01.004Z,844.80
2022-11-21T06:16:01.100Z,844.84
2022-11-21T06:17:01.010Z,844.84
2022-11-21T06:18:00.975Z,844.89
2022-11-21T06:19:00.996Z,844.91
2022-11-21T06:20:00.954Z,844.93
2022-11-21T06:21:00.944Z,844.92
2022-11-21T06:22:00.940Z,844.91
2022-11-21T06:23:00.922Z,844.86
2022-11-21T06:24:00.905Z,844.81
2022-11-21T06:25:00.987Z,844.80
2022-11-21T06:26:00.886Z,844.80
2022-11-21T06:27:00.877Z,844.84
2022-11-21T06:28:00.863Z,844.78
2022-11-21T06:29:00.861Z,844.77
2022-11-21T06:30:00.844Z,844.79
2022-11-21T06:31:00.928Z,844.80
2022-11-21T06:32:00.823Z,844.84
2022-11-21T06:33:00.968Z,844.81
2022-11-21T06:34:00.797Z,844.83
2022-11-21T06:35:00.788Z,844.77
2022-11-21T06:36:00.790Z,844.74
2022-11-21T06:37:00.781Z,844.72
2022-11-21T06:38:00.758Z,844.69
2022-11-21T06:39:00.746Z,844.66
2022-11-21T06:40:00.734Z,844.64
2022-11-21T06:41:00.734Z,844.67
2022-11-21T06:42:00.714Z,844.72
2022-11-21T06:43:00.717Z,844.73
2022-11-21T06:44:00.697Z,844.74
2022-11-21T06:45:00.798Z,844.71
2022-11-21T06:46:00.666Z,844.73
2022-11-21T06:47:00.655Z,844.72
2022-11-21T06:48:00.649Z,844.77
2022-11-21T06:49:00.695Z,844.83
2022-11-21T06:50:00.625Z,844.84
2022-11-21T06:51:00.627Z,844.89
2022-11-21T06:52:00.603Z,844.92
2022-11-21T06:53:00.593Z,844.97
2022-11-21T06:54:00.584Z,844.96
2022-11-21T06:55:00.656Z,844.93
2022-11-21T06:56:00.563Z,844.94
2022-11-21T06:57:00.559Z,844.95
2022-11-21T06:58:00.541Z,844.95
2022-11-21T06:59:00.529Z,844.97
2022-11-21T07:00:00.522Z,844.96
2022-11-21T07:01:00.672Z,844.98
2022-11-21T07:02:00.505Z,844.96
2022-11-21T07:03:03.279Z,844.96
2022-11-21T07:04:00.473Z,844.99
2022-11-21T07:05:00.496Z,845.02
2022-11-21T07:06:00.456Z,845.04
2022-11-21T07:07:00.556Z,844.99
2022-11-21T07:08:00.445Z,845.01
2022-11-21T07:09:30.961Z,845.00
2022-11-21T07:10:01.408Z,844.99
2022-11-21T07:11:23.726Z,844.99
2022-11-21T07:12:01.400Z,844.94
2022-11-21T07:13:00.391Z,844.93
2022-11-21T07:14:02.049Z,844.94
2022-11-21T07:15:00.360Z,844.92
2022-11-21T07:16:00.347Z,844.88
2022-11-21T07:17:00.337Z,844.88
2022-11-21T07:18:00.324Z,844.91
2022-11-21T07:19:00.384Z,844.86
2022-11-21T07:20:00.303Z,844.90
2022-11-21T07:21:00.316Z,844.89
2022-11-21T07:22:00.417Z,844.88
2022-11-21T07:23:00.265Z,844.92
2022-11-21T07:24:00.255Z,844.92
2022-11-21T07:25:00.269Z,844.92
2022-11-21T07:26:00.234Z,844.92
2022-11-21T07:27:00.243Z,844.95
2022-11-21T07:28:00.212Z,844.92
2022-11-21T07:29:00.196Z,844.97
2022-11-21T07:30:00.188Z,844.93
2022-11-21T07:31:00.185Z,844.94
2022-11-21T07:32:00.176Z,844.89
2022-11-21T07:33:00.195Z,844.87
2022-11-21T07:34:00.161Z,844.90
2022-11-21T07:35:00.246Z,844.88
2022-11-21T07:36:00.140Z,844.91
2022-11-21T07:37:00.142Z,844.90
2022-11-21T07:38:00.105Z,844.92
2022-11-21T07:39:00.124Z,844.88
2022-11-21T07:40:00.120Z,844.83
2022-11-21T07:41:00.094Z,844.81
2022-11-21T07:42:00.065Z,844.84
2022-11-21T07:43:00.046Z,844.86
2022-11-21T07:44:00.038Z,844.84
2022-11-21T07:45:00.095Z,844.87
2022-11-21T07:46:00.018Z,844.88
2022-11-21T07:47:00.128Z,844.87
2022-11-21T07:47:59.995Z,844.79
2022-11-21T07:49:03.350Z,844.77
2022-11-21T07:49:59.988Z,844.81
2022-11-21T07:51:00.022Z,844.81
2022-11-21T07:51:59.951Z,844.72
2022-11-21T07:52:59.994Z,844.75
2022-11-21T07:53:59.923Z,844.68
2022-11-21T07:54:59.919Z,844.67
2022-11-21T07:55:59.904Z,844.63
2022-11-21T07:56:59.948Z,844.64
2022-11-21T07:57:59.879Z,844.65
2022-11-21T07:58:59.879Z,844.63
2022-11-21T07:59:59.864Z,844.65
2022-11-21T08:00:59.849Z,844.67
2022-11-21T08:01:59.868Z,844.69
2022-11-21T08:02:59.891Z,844.75
2022-11-21T08:03:59.824Z,844.78
2022-11-21T08:04:59.805Z,844.80
2022-11-21T08:05:59.792Z,844.79
2022-11-21T08:06:59.977Z,844.74
2022-11-21T08:07:59.773Z,844.75
2022-11-21T08:08:59.820Z,844.69
2022-11-21T08:09:59.761Z,844.70
2022-11-21T08:10:59.737Z,844.71
2022-11-21T08:11:59.727Z,844.70
2022-11-21T08:12:59.727Z,844.74
2022-11-21T08:13:59.711Z,844.78
2022-11-21T08:14:59.760Z,844.76
2022-11-21T08:15:59.688Z,844.76
2022-11-21T08:16:59.672Z,844.72
2022-11-21T08:17:59.665Z,844.72
2022-11-21T08:18:59.649Z,844.70
2022-11-21T08:19:59.641Z,844.70
2022-11-21T08:20:59.644Z,844.69
2022-11-21T08:21:59.616Z,844.71
2022-11-21T08:22:59.605Z,844.69
2022-11-21T08:23:59.604Z,844.71
2022-11-21T08:24:59.611Z,844.68
2022-11-21T08:25:59.573Z,844.67
2022-11-21T08:26:59.622Z,844.62
2022-11-21T08:27:59.579Z,844.61
2022-11-21T08:29:00.183Z,844.49
2022-11-21T08:29:59.528Z,844.55
2022-11-21T08:30:59.517Z,844.60
2022-11-21T08:31:59.501Z,844.58
2022-11-21T08:32:59.526Z,844.53
2022-11-21T08:33:59.496Z,844.58
2022-11-21T08:34:59.473Z,844.55
2022-11-21T08:35:59.468Z,844.54
2022-11-21T08:36:59.450Z,844.53
2022-11-21T08:37:59.448Z,844.51
2022-11-21T08:38:59.493Z,844.49
2022-11-21T08:39:59.433Z,844.52
2022-11-21T08:40:59.540Z,844.57
2022-11-21T08:41:59.397Z,844.59
2022-11-21T08:42:59.386Z,844.57
2022-11-21T08:43:59.374Z,844.61
2022-11-21T08:44:59.430Z,844.58
2022-11-21T08:45:59.356Z,844.58
2022-11-21T08:46:59.354Z,844.53
2022-11-21T08:47:59.435Z,844.55
2022-11-21T08:48:59.326Z,844.56
2022-11-21T08:50:01.971Z,844.55
2022-11-21T08:51:00.363Z,844.60
2022-11-21T08:51:59.287Z,844.55
2022-11-21T08:52:59.281Z,844.59
2022-11-21T08:53:59.281Z,844.58
2022-11-21T08:54:59.249Z,844.64
2022-11-21T08:56:03.964Z,844.63
2022-11-21T08:57:00.296Z,844.64
2022-11-21T08:57:59.220Z,844.61
2022-11-21T08:58:59.211Z,844.61
2022-11-21T08:59:59.219Z,844.59
2022-11-21T09:00:59.192Z,844.60
2022-11-21T09:01:59.258Z,844.63
2022-11-21T09:02:59.169Z,844.55
2022-11-21T09:03:59.159Z,844.60
2022-11-21T09:04:59.145Z,844.56
2022-11-21T09:05:59.141Z,844.53
2022-11-21T09:06:59.127Z,844.54
2022-11-21T09:07:59.132Z,844.50
2022-11-21T09:08:59.114Z,844.47
2022-11-21T09:09:59.089Z,844.43
2022-11-21T09:10:59.253Z,844.42
2022-11-21T09:11:59.082Z,844.44
2022-11-21T09:12:59.094Z,844.42
2022-11-21T09:13:59.057Z,844.47
2022-11-21T09:14:59.103Z,844.45
2022-11-21T09:15:59.022Z,844.41
2022-11-21T09:17:02.073Z,844.43
2022-11-21T09:17:59.019Z,844.43
2022-11-21T09:18:58.992Z,844.44
2022-11-21T09:19:59.058Z,844.40
2022-11-21T09:20:59.134Z,844.38
2022-11-21T09:21:58.961Z,844.36
2022-11-21T09:22:58.948Z,844.32
2022-11-21T09:23:58.952Z,844.30
2022-11-21T09:24:58.931Z,844.33
2022-11-21T09:25:58.923Z,844.24
2022-11-21T09:26:58.971Z,844.21
2022-11-21T09:27:58.908Z,844.23
2022-11-21T09:28:58.911Z,844.20
2022-11-21T09:29:58.872Z,844.13
2022-11-21T09:30:59.120Z,844.14
2022-11-21T09:31:58.858Z,844.11
2022-11-21T09:32:58.900Z,844.14
2022-11-21T09:33:58.830Z,844.13
2022-11-21T09:34:58.817Z,844.14
2022-11-21T09:35:58.807Z,844.11
2022-11-21T09:36:58.800Z,844.11
2022-11-21T09:37:58.791Z,844.11
2022-11-21T09:38:58.864Z,844.15
2022-11-21T09:39:58.768Z,844.11
2022-11-21T09:40:58.756Z,844.13
2022-11-21T09:41:58.742Z,844.11
2022-11-21T09:42:58.732Z,844.15
2022-11-21T09:43:58.730Z,844.11
2022-11-21T09:44:58.790Z,844.08
2022-11-21T09:45:58.702Z,844.07
2022-11-21T09:46:58.693Z,844.08
2022-11-21T09:47:58.679Z,844.05
2022-11-21T09:48:58.660Z,844.06
2022-11-21T09:49:58.661Z,843.98
2022-11-21T09:50:59.145Z,844.00
2022-11-21T09:51:58.633Z,843.98
2022-11-21T09:52:58.626Z,843.98
2022-11-21T09:53:58.609Z,843.95
2022-11-21T09:54:58.599Z,843.95
2022-11-21T09:55:58.586Z,843.91
2022-11-21T09:56:58.651Z,843.85
2022-11-21T09:57:58.568Z,843.82
2022-11-21T09:58:58.575Z,843.86
2022-11-21T09:59:58.553Z,843.76
2022-11-21T10:00:58.774Z,843.78
2022-11-21T10:01:58.525Z,843.73
2022-11-21T10:02:58.569Z,843.69
2022-11-21T10:03:58.507Z,843.67
2022-11-21T10:04:58.505Z,843.74
2022-11-21T10:05:58.495Z,843.72
2022-11-21T10:06:58.469Z,843.71
2022-11-21T10:07:58.458Z,843.68
2022-11-21T10:08:58.508Z,843.66
2022-11-21T10:09:58.442Z,843.67
2022-11-21T10:10:58.427Z,843.67
2022-11-21T10:11:58.429Z,843.66
2022-11-21T10:12:58.404Z,843.64
2022-11-21T10:13:58.394Z,843.68
2022-11-21T10:14:58.395Z,843.64
2022-11-21T10:15:58.381Z,843.66
2022-11-21T10:16:58.402Z,843.61
2022-11-21T10:17:58.354Z,843.63
2022-11-21T10:18:58.339Z,843.62
2022-11-21T10:19:58.329Z,843.63
2022-11-21T10:20:58.362Z,843.63
2022-11-21T10:21:58.316Z,843.67
2022-11-21T10:22:58.299Z,843.64
2022-11-21T10:23:58.286Z,843.58
2022-11-21T10:24:58.290Z,843.61
2022-11-21T10:25:58.266Z,843.59
2022-11-21T10:26:58.331Z,843.57
2022-11-21T10:27:58.243Z,843.50
2022-11-21T10:28:58.233Z,843.52
2022-11-21T10:29:58.219Z,843.46
2022-11-21T10:30:58.220Z,843.42
2022-11-21T10:31:58.201Z,843.39
2022-11-21T10:32:58.267Z,843.35
2022-11-21T10:33:58.187Z,843.27
2022-11-21T10:34:58.172Z,843.33
2022-11-21T10:35:58.157Z,843.26
2022-11-21T10:36:58.152Z,843.33
2022-11-21T10:37:58.144Z,843.31
2022-11-21T10:38:58.180Z,843.19
2022-11-21T10:39:58.109Z,843.20
2022-11-21T10:40:58.107Z,843.13
2022-11-21T10:41:58.093Z,843.06
2022-11-21T10:42:58.092Z,842.99
2022-11-21T10:43:58.071Z,842.97
2022-11-21T10:44:58.062Z,842.96
2022-11-21T10:45:58.054Z,842.94
2022-11-21T10:46:58.050Z,842.92
2022-11-21T10:47:58.027Z,842.87
2022-11-21T10:48:58.042Z,842.85
2022-11-21T10:49:58.001Z,842.84
2022-11-21T10:50:58.057Z,842.85
2022-11-21T10:51:57.981Z,842.83
2022-11-21T10:52:58.076Z,842.79
2022-11-21T10:53:59.949Z,842.76
2022-11-21T10:54:58.948Z,842.75
2022-11-21T10:55:57.950Z,842.69
2022-11-21T10:56:58.007Z,842.68
2022-11-21T10:57:57.913Z,842.70
2022-11-21T10:58:57.912Z,842.69
2022-11-21T10:59:57.895Z,842.68
2022-11-21T11:00:57.983Z,842.67
2022-11-21T11:01:57.871Z,842.70
2022-11-21T11:02:57.935Z,842.64
2022-11-21T11:04:21.007Z,842.62
2022-11-21T11:04:58.881Z,842.60
2022-11-21T11:05:57.835Z,842.57
2022-11-21T11:06:57.818Z,842.58
2022-11-21T11:07:57.808Z,842.59
2022-11-21T11:08:57.883Z,842.51
2022-11-21T11:09:57.801Z,842.48
2022-11-21T11:10:57.779Z,842.47
2022-11-21T11:11:57.768Z,842.44
2022-11-21T11:12:57.750Z,842.42
2022-11-21T11:13:57.746Z,842.40
2022-11-21T11:14:57.738Z,842.38
2022-11-21T11:15:57.729Z,842.34
2022-11-21T11:16:57.711Z,842.34
2022-11-21T11:17:57.727Z,842.36
2022-11-21T11:18:57.876Z,842.38
2022-11-21T11:19:57.673Z,842.38
2022-11-21T11:20:58.066Z,842.41
2022-11-21T11:21:57.653Z,842.39
2022-11-21T11:22:57.644Z,842.37
2022-11-21T11:23:57.642Z,842.39
2022-11-21T11:25:00.784Z,842.31
2022-11-21T11:25:57.610Z,842.32
2022-11-21T11:26:57.596Z,842.28
2022-11-21T11:27:57.590Z,842.25
2022-11-21T11:28:57.644Z,842.22
2022-11-21T11:29:57.665Z,842.21
2022-11-21T11:30:57.558Z,842.21
2022-11-21T11:31:57.543Z,842.14
2022-11-21T11:32:57.535Z,842.15
2022-11-21T11:33:57.736Z,842.08
2022-11-21T11:34:57.505Z,842.06
2022-11-21T11:35:57.510Z,842.05
2022-11-21T11:36:57.517Z,842.05
2022-11-21T11:37:57.531Z,842.05
2022-11-21T11:38:57.616Z,842.01
2022-11-21T11:39:57.459Z,842.07
2022-11-21T11:40:57.936Z,842.02
2022-11-21T11:41:57.438Z,842.02
2022-11-21T11:42:57.419Z,842.01
2022-11-21T11:43:57.472Z,841.97
2022-11-21T11:44:57.423Z,841.95
2022-11-21T11:45:57.392Z,841.92
2022-11-21T11:46:57.382Z,841.94
2022-11-21T11:47:57.369Z,841.84
2022-11-21T11:49:19.339Z,841.90
2022-11-21T11:49:58.376Z,841.87
2022-11-21T11:50:57.963Z,841.80
2022-11-21T11:51:57.321Z,841.80
2022-11-21T11:52:57.331Z,841.79
2022-11-21T11:54:01.000Z,841.79
2022-11-21T11:54:57.290Z,841.77
2022-11-21T11:55:57.602Z,841.78
2022-11-21T11:56:57.267Z,841.75
2022-11-21T11:57:57.252Z,841.76
2022-11-21T11:58:57.243Z,841.72
2022-11-21T11:59:57.237Z,841.76
2022-11-21T12:00:57.223Z,841.71
2022-11-21T12:01:57.262Z,841.70
2022-11-21T12:02:57.214Z,841.67
2022-11-21T12:03:58.334Z,841.70
2022-11-21T12:04:57.183Z,841.63
2022-11-21T12:05:57.176Z,841.59
2022-11-21T12:08:58.213Z,841.62
2022-11-21T12:09:57.128Z,841.65
2022-11-21T12:10:58.077Z,841.62
2022-11-21T12:11:57.112Z,841.66
2022-11-21T12:12:57.098Z,841.64
2022-11-21T12:13:57.111Z,841.60
2022-11-21T12:14:57.072Z,841.65
2022-11-21T12:16:03.316Z,841.60
2022-11-21T12:16:58.088Z,841.62
2022-11-21T12:17:57.140Z,841.54
2022-11-21T12:18:57.029Z,841.53
2022-11-21T12:19:57.076Z,841.56
2022-11-21T12:20:57.001Z,841.55
2022-11-21T12:21:56.995Z,841.57
2022-11-21T12:22:57.000Z,841.55
2022-11-21T12:23:56.972Z,841.54
2022-11-21T12:24:56.998Z,841.54
2022-11-21T12:25:56.958Z,841.52
2022-11-21T12:26:56.942Z,841.55
2022-11-21T12:27:56.940Z,841.51
2022-11-21T12:28:56.919Z,841.46
2022-11-21T12:29:56.913Z,841.46